Time;durP1;ratioP1;P1;durP2;ratioP2;P2;SDS_P1;SDS_P2;PMS_P1;PMS_P2;Temp;Humidity;BMP_temperature;BMP_pressure;BME280_temperature;BME280_humidity;BME280_pressure;Samples;Min_cycle;Max_cycle;Signal;HPM_P1;HPM_P2
2022/11/28 00:02:35;;;;;;;;;;;16.90;45.10;;;;;;8334969;28;19921;-44
2022/11/28 00:06:37;;;;;;;;;;;16.90;45.10;;;;;;8334675;28;19940;-44
2022/11/28 00:10:38;;;;;;;;;;;16.90;45.10;;;;;;8334726;28;20207;-46
2022/11/28 00:14:39;;;;;;;;;;;16.90;45.10;;;;;;8334747;28;20000;-44
2022/11/28 00:18:39;;;;;;;;;;;16.90;45.10;;;;;;8334314;28;19924;-45
2022/11/28 00:22:40;;;;;;;;;;;16.90;45.10;;;;;;8332801;28;19929;-44
2022/11/28 00:26:40;;;;;;;;;;;16.90;45.10;;;;;;8334580;28;20004;-44
2022/11/28 00:30:41;;;;;;;;;;;16.90;45.10;;;;;;8333903;28;20294;-45
2022/11/28 00:34:41;;;;;;;;;;;16.90;45.10;;;;;;8334475;28;20046;-44
2022/11/28 00:38:42;;;;;;;;;;;16.90;45.10;;;;;;8334091;28;19917;-44
2022/11/28 00:42:43;;;;;;;;;;;16.90;45.10;;;;;;8333452;28;20449;-44
2022/11/28 00:46:43;;;;;;;;;;;16.90;45.10;;;;;;8334008;28;19913;-44
2022/11/28 00:50:43;;;;;;;;;;;16.90;45.10;;;;;;8333523;28;19924;-45
2022/11/28 00:54:44;;;;;;;;;;;16.90;45.10;;;;;;8333142;28;19917;-45
2022/11/28 00:58:44;;;;;;;;;;;16.90;45.10;;;;;;8333424;28;20003;-45
2022/11/28 01:02:45;;;;;;;;;;;16.90;45.10;;;;;;8333493;28;19925;-44
2022/11/28 01:06:47;;;;;;;;;;;16.90;45.10;;;;;;8332954;28;19913;-44
2022/11/28 01:10:47;;;;;;;;;;;16.90;45.10;;;;;;8332984;28;19944;-45
2022/11/28 01:14:47;;;;;;;;;;;16.80;45.20;;;;;;8332914;28;19917;-44
2022/11/28 01:18:48;;;;;;;;;;;16.90;45.20;;;;;;8332309;28;19928;-45
2022/11/28 01:22:48;;;;;;;;;;;16.90;45.20;;;;;;8332604;28;19949;-45
2022/11/28 01:26:49;;;;;;;;;;;16.80;45.10;;;;;;8332832;28;20000;-45
2022/11/28 01:30:49;;;;;;;;;;;16.90;45.10;;;;;;8332022;28;19917;-44
2022/11/28 01:34:50;;;;;;;;;;;16.90;45.20;;;;;;8331459;28;19925;-44
2022/11/28 01:38:50;;;;;;;;;;;16.80;45.10;;;;;;8332405;28;19921;-44
2022/11/28 01:42:51;;;;;;;;;;;16.80;45.10;;;;;;8331526;28;20397;-44
2022/11/28 01:46:51;;;;;;;;;;;16.90;45.10;;;;;;8331967;28;19919;-44
2022/11/28 01:50:54;;;;;;;;;;;16.90;45.60;;;;;;8331676;28;19917;-44
2022/11/28 01:54:56;;;;;;;;;;;16.80;45.10;;;;;;8331236;28;19943;-44
2022/11/28 01:58:59;;;;;;;;;;;16.80;45.10;;;;;;8331831;28;19917;-45
2022/11/28 02:03:04;;;;;;;;;;;16.80;45.10;;;;;;8331462;28;20375;-45
2022/11/28 02:07:04;;;;;;;;;;;16.80;45.10;;;;;;8330303;28;19990;-45
2022/11/28 02:11:05;;;;;;;;;;;16.80;45.20;;;;;;8331090;28;20283;-44
2022/11/28 02:15:05;;;;;;;;;;;16.90;45.20;;;;;;8330987;28;19928;-45
2022/11/28 02:19:29;;;;;;;;;;;16.80;45.10;;;;;;8330484;28;19923;-44
2022/11/28 02:23:32;;;;;;;;;;;16.80;45.10;;;;;;8322658;28;20009;-45
2022/11/28 02:27:37;;;;;;;;;;;16.80;45.10;;;;;;8330574;28;20068;-44
2022/11/28 02:31:57;;;;;;;;;;;16.80;45.10;;;;;;8330695;28;20313;-45
2022/11/28 02:36:21;;;;;;;;;;;16.80;45.10;;;;;;8276682;28;19921;-44
2022/11/28 02:40:33;;;;;;;;;;;16.80;45.10;;;;;;8309436;28;19921;-44
2022/11/28 02:44:38;;;;;;;;;;;16.80;45.10;;;;;;8330467;28;19925;-45
2022/11/28 02:48:53;;;;;;;;;;;16.80;45.10;;;;;;8330118;28;20313;-44
2022/11/28 02:53:06;;;;;;;;;;;16.90;45.20;;;;;;8330348;28;19914;-44
2022/11/28 02:57:06;;;;;;;;;;;16.80;45.10;;;;;;8330228;28;19924;-44
2022/11/28 03:01:14;;;;;;;;;;;16.80;45.20;;;;;;8329591;28;20004;-46
2022/11/28 03:05:14;;;;;;;;;;;16.80;45.20;;;;;;8330048;28;20368;-44
2022/11/28 03:09:21;;;;;;;;;;;16.80;45.10;;;;;;8329862;28;20031;-44
2022/11/28 03:13:29;;;;;;;;;;;16.80;45.10;;;;;;8329432;28;19984;-45
2022/11/28 03:17:48;;;;;;;;;;;16.80;45.10;;;;;;8330042;28;19914;-45
2022/11/28 03:22:06;;;;;;;;;;;16.80;45.70;;;;;;8329310;28;20444;-45
2022/11/28 03:26:10;;;;;;;;;;;16.80;45.10;;;;;;8329769;28;19917;-45
2022/11/28 03:30:15;;;;;;;;;;;16.80;45.10;;;;;;8329636;28;19921;-44
2022/11/28 03:34:18;;;;;;;;;;;16.80;45.10;;;;;;8329354;28;19924;-45
2022/11/28 03:38:26;;;;;;;;;;;16.80;45.10;;;;;;8329543;28;19983;-44
2022/11/28 03:42:28;;;;;;;;;;;16.80;45.10;;;;;;8329637;28;19921;-45
2022/11/28 03:46:32;;;;;;;;;;;16.80;45.10;;;;;;8329117;28;19996;-44
2022/11/28 03:50:36;;;;;;;;;;;16.80;45.10;;;;;;8329659;28;20390;-44
2022/11/28 03:54:44;;;;;;;;;;;16.80;45.20;;;;;;8328780;28;19917;-44
2022/11/28 03:58:55;;;;;;;;;;;16.80;45.20;;;;;;8334444;28;20278;-44
2022/11/28 04:03:02;;;;;;;;;;;16.80;45.20;;;;;;8335254;28;19921;-44
2022/11/28 04:07:14;;;;;;;;;;;16.80;45.20;;;;;;8334360;28;19929;-44
2022/11/28 04:11:18;;;;;;;;;;;16.80;45.10;;;;;;8335177;28;20020;-45
2022/11/28 04:15:27;;;;;;;;;;;16.80;45.20;;;;;;8334138;28;20302;-46
2022/11/28 04:19:31;;;;;;;;;;;16.80;45.20;;;;;;8334744;28;19924;-45
2022/11/28 04:23:33;;;;;;;;;;;16.80;45.20;;;;;;8334863;28;19925;-46
2022/11/28 04:27:36;;;;;;;;;;;16.80;45.30;;;;;;8334146;28;19917;-44
2022/11/28 04:31:38;;;;;;;;;;;16.90;45.20;;;;;;8334268;28;19947;-45
2022/11/28 04:35:41;;;;;;;;;;;16.90;45.10;;;;;;8334395;28;19917;-44
2022/11/28 04:39:43;;;;;;;;;;;16.90;45.20;;;;;;8333548;28;19921;-44
2022/11/28 04:43:46;;;;;;;;;;;16.90;45.10;;;;;;8334326;28;20290;-44
2022/11/28 04:47:47;;;;;;;;;;;16.90;45.20;;;;;;8333908;28;19917;-44
2022/11/28 04:51:54;;;;;;;;;;;16.90;45.20;;;;;;8333220;28;20294;-44
2022/11/28 04:56:00;;;;;;;;;;;17.00;45.30;;;;;;8333688;28;19960;-45
2022/11/28 05:00:02;;;;;;;;;;;17.00;45.20;;;;;;8333479;28;20259;-45
2022/11/28 05:04:02;;;;;;;;;;;17.00;45.00;;;;;;8331733;28;19922;-46
2022/11/28 05:08:03;;;;;;;;;;;17.00;45.10;;;;;;8332369;28;19921;-45
2022/11/28 05:12:03;;;;;;;;;;;17.10;45.00;;;;;;8332962;28;19924;-44
2022/11/28 05:16:04;;;;;;;;;;;17.10;44.90;;;;;;8332392;28;19921;-44
2022/11/28 05:20:05;;;;;;;;;;;17.00;44.90;;;;;;8332830;28;19921;-44
2022/11/28 05:24:06;;;;;;;;;;;17.00;44.90;;;;;;8332563;28;19921;-44
2022/11/28 05:28:06;;;;;;;;;;;17.00;44.90;;;;;;8332354;28;19967;-44
2022/11/28 05:32:07;;;;;;;;;;;17.00;45.00;;;;;;8332313;28;19971;-44
2022/11/28 05:36:09;;;;;;;;;;;17.00;44.90;;;;;;8332317;28;20359;-44
2022/11/28 05:40:09;;;;;;;;;;;17.00;45.00;;;;;;8331723;28;20383;-44
2022/11/28 05:44:10;;;;;;;;;;;17.00;45.00;;;;;;8332229;28;20004;-44
2022/11/28 05:48:10;;;;;;;;;;;17.00;45.00;;;;;;8332025;28;19914;-44
2022/11/28 05:52:11;;;;;;;;;;;17.00;45.10;;;;;;8331252;28;19920;-44
2022/11/28 05:56:13;;;;;;;;;;;17.00;45.10;;;;;;8331764;28;19928;-44
2022/11/28 06:00:14;;;;;;;;;;;16.90;45.00;;;;;;8331481;28;19921;-44
2022/11/28 06:04:15;;;;;;;;;;;16.90;45.00;;;;;;8331112;28;20378;-44
2022/11/28 06:08:15;;;;;;;;;;;16.90;45.00;;;;;;8331092;28;19935;-44
2022/11/28 06:12:15;;;;;;;;;;;16.90;45.10;;;;;;8331291;28;20289;-45
2022/11/28 06:16:17;;;;;;;;;;;16.90;45.10;;;;;;8330601;28;19917;-45
2022/11/28 06:20:18;;;;;;;;;;;16.90;45.10;;;;;;8330833;28;19917;-45
2022/11/28 06:24:18;;;;;;;;;;;16.90;45.10;;;;;;8330945;28;19929;-45
2022/11/28 06:28:18;;;;;;;;;;;16.80;45.10;;;;;;8330254;28;20293;-45
2022/11/28 06:32:19;;;;;;;;;;;16.90;45.10;;;;;;8330819;28;20357;-45
2022/11/28 06:36:19;;;;;;;;;;;16.90;45.20;;;;;;8330451;28;19963;-44
2022/11/28 06:40:20;;;;;;;;;;;16.90;45.10;;;;;;8329921;28;19943;-45
2022/11/28 06:44:20;;;;;;;;;;;16.90;45.10;;;;;;8330423;28;20376;-44
2022/11/28 06:48:21;;;;;;;;;;;16.80;45.10;;;;;;8330234;28;20011;-46
2022/11/28 06:52:21;;;;;;;;;;;16.80;45.10;;;;;;8329732;28;19971;-44
2022/11/28 06:56:22;;;;;;;;;;;16.90;45.30;;;;;;8330266;28;19917;-45
2022/11/28 07:00:23;;;;;;;;;;;16.90;45.20;;;;;;8330033;28;19917;-45
2022/11/28 07:04:23;;;;;;;;;;;17.00;45.10;;;;;;8329587;28;19943;-45
2022/11/28 07:08:24;;;;;;;;;;;17.00;45.10;;;;;;8330232;28;19968;-45
2022/11/28 07:12:24;;;;;;;;;;;17.00;44.90;;;;;;8329707;28;19921;-45
2022/11/28 07:16:31;;;;;;;;;;;17.00;45.00;;;;;;8329388;28;19921;-46
2022/11/28 07:20:32;;;;;;;;;;;17.10;45.00;;;;;;8329748;28;19928;-45
2022/11/28 07:24:32;;;;;;;;;;;17.10;44.90;;;;;;8329422;28;19921;-45
2022/11/28 07:28:33;;;;;;;;;;;17.10;45.00;;;;;;8329606;28;19924;-46
2022/11/28 07:32:34;;;;;;;;;;;17.10;45.00;;;;;;8333335;28;20020;-45
2022/11/28 07:36:34;;;;;;;;;;;17.10;45.00;;;;;;8335611;28;20297;-47
2022/11/28 07:40:35;;;;;;;;;;;17.00;44.90;;;;;;8335878;28;20015;-46
2022/11/28 07:44:35;;;;;;;;;;;17.00;45.00;;;;;;8336263;28;19972;-50
2022/11/28 07:48:36;;;;;;;;;;;17.00;45.00;;;;;;8335282;28;19918;-45
2022/11/28 07:52:37;;;;;;;;;;;17.00;45.10;;;;;;8335795;28;19917;-46
2022/11/28 07:56:37;;;;;;;;;;;17.00;45.10;;;;;;8335511;28;19939;-45
2022/11/28 08:00:38;;;;;;;;;;;17.00;45.10;;;;;;8334914;28;20000;-45
2022/11/28 08:04:39;;;;;;;;;;;17.00;45.10;;;;;;8335383;28;19921;-46
2022/11/28 08:08:39;;;;;;;;;;;17.00;45.10;;;;;;8334940;28;20275;-45
2022/11/28 08:12:40;;;;;;;;;;;17.00;45.20;;;;;;8331541;28;19917;-46
2022/11/28 08:16:43;;;;;;;;;;;16.90;45.10;;;;;;8334585;28;20426;-45
2022/11/28 08:20:44;;;;;;;;;;;16.90;45.10;;;;;;8334710;28;19932;-45
2022/11/28 08:24:44;;;;;;;;;;;16.90;45.20;;;;;;8333900;28;19956;-46
2022/11/28 08:28:45;;;;;;;;;;;16.90;45.20;;;;;;8334386;28;19924;-46
2022/11/28 08:32:45;;;;;;;;;;;16.90;45.10;;;;;;8334337;28;19924;-45
2022/11/28 08:36:47;;;;;;;;;;;16.90;45.10;;;;;;8333704;28;19917;-45
2022/11/28 08:40:48;;;;;;;;;;;16.90;45.20;;;;;;8333980;28;19917;-45
2022/11/28 08:44:48;;;;;;;;;;;16.90;45.20;;;;;;8334214;28;20298;-45
2022/11/28 08:48:50;;;;;;;;;;;16.90;45.20;;;;;;8333466;28;19917;-44
2022/11/28 08:52:50;;;;;;;;;;;16.90;45.20;;;;;;8333870;28;19924;-45
2022/11/28 08:56:51;;;;;;;;;;;17.00;45.30;;;;;;8333672;28;19921;-44
2022/11/28 09:00:51;;;;;;;;;;;17.00;45.20;;;;;;8332925;28;19971;-44
2022/11/28 09:04:52;;;;;;;;;;;17.10;45.10;;;;;;8333315;28;20301;-44
2022/11/28 09:08:52;;;;;;;;;;;17.10;45.00;;;;;;8333115;28;20338;-44
2022/11/28 09:12:53;;;;;;;;;;;17.10;45.00;;;;;;8332552;28;20389;-44
2022/11/28 09:16:53;;;;;;;;;;;17.10;45.00;;;;;;8332798;28;20054;-44
2022/11/28 09:20:58;;;;;;;;;;;17.10;45.00;;;;;;8332687;28;20963;-44
2022/11/28 09:24:58;;;;;;;;;;;17.20;45.00;;;;;;8332384;28;19921;-44
2022/11/28 09:28:59;;;;;;;;;;;17.20;45.00;;;;;;8332662;28;19963;-44
2022/11/28 09:32:59;;;;;;;;;;;17.10;44.90;;;;;;8332476;28;19925;-47
2022/11/28 09:37:00;;;;;;;;;;;17.20;44.90;;;;;;8331768;28;19963;-44
2022/11/28 09:41:01;;;;;;;;;;;17.10;44.90;;;;;;8332473;28;19975;-44
2022/11/28 09:45:05;;;;;;;;;;;17.10;45.00;;;;;;8332326;28;19925;-44
2022/11/28 09:49:20;;;;;;;;;;;17.10;44.90;;;;;;8331531;28;20012;-43
2022/11/28 09:53:32;;;;;;;;;;;17.10;45.00;;;;;;8331281;28;19970;-44
2022/11/28 09:57:39;;;;;;;;;;;17.10;45.00;;;;;;8331445;28;19921;-44
2022/11/28 10:01:43;;;;;;;;;;;17.10;45.10;;;;;;8331711;28;20366;-44
2022/11/28 10:05:49;;;;;;;;;;;17.10;45.10;;;;;;8331761;28;19913;-44
2022/11/28 10:09:55;;;;;;;;;;;17.10;45.20;;;;;;8330836;28;19948;-44
2022/11/28 10:14:08;;;;;;;;;;;17.10;45.10;;;;;;8331337;28;19917;-45
2022/11/28 10:18:17;;;;;;;;;;;17.10;45.10;;;;;;8331162;28;20031;-45
2022/11/28 10:22:21;;;;;;;;;;;17.10;45.10;;;;;;8330497;28;19929;-44
2022/11/28 10:26:30;;;;;;;;;;;17.10;45.10;;;;;;8330785;28;20010;-44
2022/11/28 10:30:35;;;;;;;;;;;17.10;45.20;;;;;;8330681;28;20347;-45
2022/11/28 10:34:44;;;;;;;;;;;17.10;45.20;;;;;;8330787;28;19924;-45
2022/11/28 10:38:44;;;;;;;;;;;17.10;45.20;;;;;;8330860;28;19925;-45
2022/11/28 10:42:45;;;;;;;;;;;17.10;45.20;;;;;;8329919;28;19928;-45
2022/11/28 10:46:54;;;;;;;;;;;17.10;45.20;;;;;;8330195;28;19913;-46
2022/11/28 10:51:03;;;;;;;;;;;17.10;45.30;;;;;;8330457;28;19963;-45
2022/11/28 10:55:07;;;;;;;;;;;17.10;45.30;;;;;;8329810;28;19967;-45
2022/11/28 10:59:18;;;;;;;;;;;17.10;45.20;;;;;;8330584;28;20004;-45
2022/11/28 11:03:21;;;;;;;;;;;17.10;45.30;;;;;;8330138;28;19939;-45
2022/11/28 11:07:29;;;;;;;;;;;17.10;45.30;;;;;;8332926;28;20022;-48
2022/11/28 11:11:35;;;;;;;;;;;17.10;45.30;;;;;;8307264;28;19968;-45
2022/11/28 11:15:36;;;;;;;;;;;17.10;45.30;;;;;;8338772;28;19913;-44
2022/11/28 11:19:38;;;;;;;;;;;17.10;45.20;;;;;;8336447;28;20349;-46
2022/11/28 11:23:38;;;;;;;;;;;17.10;45.20;;;;;;8336623;28;19932;-47
2022/11/28 11:27:46;;;;;;;;;;;17.10;45.20;;;;;;8335848;28;19917;-45
2022/11/28 11:31:49;;;;;;;;;;;17.10;45.30;;;;;;8336129;28;19913;-45
2022/11/28 11:35:50;;;;;;;;;;;17.00;45.20;;;;;;8336509;28;19913;-45
2022/11/28 11:39:52;;;;;;;;;;;17.10;45.30;;;;;;8335499;28;20397;-46
2022/11/28 11:43:52;;;;;;;;;;;17.10;45.30;;;;;;8336077;28;19952;-45
2022/11/28 11:47:53;;;;;;;;;;;17.10;45.30;;;;;;8335828;28;19917;-46
2022/11/28 11:51:57;;;;;;;;;;;17.00;45.30;;;;;;8335058;28;19921;-46
2022/11/28 11:56:01;;;;;;;;;;;17.00;45.30;;;;;;8336077;28;19935;-45
2022/11/28 12:00:13;;;;;;;;;;;17.00;45.30;;;;;;8335375;28;19917;-46
2022/11/28 12:04:40;;;;;;;;;;;17.00;45.30;;;;;;8334730;28;19981;-45
2022/11/28 12:08:49;;;;;;;;;;;17.00;45.30;;;;;;8331872;28;20363;-45
2022/11/28 12:12:49;;;;;;;;;;;17.00;45.30;;;;;;8334475;28;19970;-45
2022/11/28 12:16:50;;;;;;;;;;;17.10;45.40;;;;;;8334480;28;19913;-45
2022/11/28 12:21:09;;;;;;;;;;;17.00;45.40;;;;;;8335188;28;19913;-48
2022/11/28 12:25:12;;;;;;;;;;;17.10;45.40;;;;;;8354785;28;19978;-46
2022/11/28 12:29:22;;;;;;;;;;;17.10;45.50;;;;;;8346372;28;19928;-45
2022/11/28 12:33:42;;;;;;;;;;;17.10;45.50;;;;;;8334289;28;20008;-45
2022/11/28 12:37:50;;;;;;;;;;;17.20;45.50;;;;;;8333928;28;20332;-45
2022/11/28 12:41:57;;;;;;;;;;;17.20;45.40;;;;;;8334254;28;19971;-45
2022/11/28 12:45:57;;;;;;;;;;;17.20;45.40;;;;;;8333749;28;19917;-45
2022/11/28 12:50:03;;;;;;;;;;;17.30;45.40;;;;;;8334042;28;19924;-45
2022/11/28 12:54:10;;;;;;;;;;;17.30;45.40;;;;;;8333761;28;19923;-46
2022/11/28 12:58:20;;;;;;;;;;;17.30;45.30;;;;;;8333194;28;19967;-45
2022/11/28 13:02:28;;;;;;;;;;;17.40;45.30;;;;;;8333357;28;20009;-46
2022/11/28 13:06:31;;;;;;;;;;;17.40;45.20;;;;;;8333055;28;19913;-44
2022/11/28 13:10:43;;;;;;;;;;;17.40;45.20;;;;;;8333005;28;19925;-45
2022/11/28 13:14:49;;;;;;;;;;;17.40;45.20;;;;;;8333205;28;19923;-46
2022/11/28 13:19:04;;;;;;;;;;;17.40;45.20;;;;;;8332550;28;19918;-46
2022/11/28 13:23:11;;;;;;;;;;;17.40;45.30;;;;;;8332653;28;19936;-45
2022/11/28 13:27:15;;;;;;;;;;;17.30;45.20;;;;;;8332996;28;19917;-45
2022/11/28 13:31:31;;;;;;;;;;;17.40;45.30;;;;;;8331508;28;20393;-47
2022/11/28 13:35:32;;;;;;;;;;;17.30;45.30;;;;;;8332410;28;19917;-45
2022/11/28 13:39:48;;;;;;;;;;;17.30;45.40;;;;;;8331884;28;19913;-46
2022/11/28 13:43:49;;;;;;;;;;;17.30;45.40;;;;;;8332205;28;19971;-48
2022/11/28 13:47:49;;;;;;;;;;;17.30;45.40;;;;;;8331998;28;20328;-45
2022/11/28 13:52:10;;;;;;;;;;;17.30;45.40;;;;;;8331794;28;20259;-48
2022/11/28 13:56:24;;;;;;;;;;;17.30;45.40;;;;;;8331649;28;19917;-47
2022/11/28 14:00:24;;;;;;;;;;;17.30;45.40;;;;;;8331537;28;19925;-46
2022/11/28 14:04:25;;;;;;;;;;;17.30;45.50;;;;;;8330710;28;20301;-46
2022/11/28 14:08:29;;;;;;;;;;;17.30;45.50;;;;;;8328068;28;19929;-46
2022/11/28 14:12:33;;;;;;;;;;;17.20;45.50;;;;;;8330516;28;19917;-46
2022/11/28 14:16:39;;;;;;;;;;;17.20;45.50;;;;;;8331381;28;19970;-46
2022/11/28 14:20:52;;;;;;;;;;;17.20;45.50;;;;;;8330876;28;19917;-45
2022/11/28 14:25:00;;;;;;;;;;;17.20;45.50;;;;;;8331930;28;19931;-44
2022/11/28 14:29:01;;;;;;;;;;;17.20;45.60;;;;;;8330830;28;20343;-45
2022/11/28 14:33:14;;;;;;;;;;;17.20;45.60;;;;;;8330812;28;19921;-46
2022/11/28 14:37:18;;;;;;;;;;;17.20;45.60;;;;;;8330418;28;20376;-45
2022/11/28 14:41:18;;;;;;;;;;;17.20;45.60;;;;;;8330575;28;19963;-46
2022/11/28 14:45:31;;;;;;;;;;;17.20;45.60;;;;;;8330265;28;19925;-45
2022/11/28 14:49:31;;;;;;;;;;;17.20;45.50;;;;;;8329989;28;20275;-46
2022/11/28 14:53:41;;;;;;;;;;;17.20;45.60;;;;;;8330473;28;19921;-47
2022/11/28 14:57:57;;;;;;;;;;;17.20;45.60;;;;;;8330092;28;19913;-45
2022/11/28 15:02:02;;;;;;;;;;;17.20;45.60;;;;;;8330330;28;19925;-47
2022/11/28 15:06:10;;;;;;;;;;;17.20;45.60;;;;;;8330227;28;19975;-46
2022/11/28 15:10:17;;;;;;;;;;;17.20;45.60;;;;;;8327832;28;19991;-46
2022/11/28 15:14:21;;;;;;;;;;;17.20;45.70;;;;;;8328242;28;19924;-45
2022/11/28 15:18:23;;;;;;;;;;;17.20;46.20;;;;;;8327117;28;19944;-46
2022/11/28 15:22:28;;;;;;;;;;;17.20;45.70;;;;;;8329742;28;20289;-48
2022/11/28 15:26:29;;;;;;;;;;;17.20;45.70;;;;;;8326103;28;20020;-45
2022/11/28 15:30:30;;;;;;;;;;;17.20;45.70;;;;;;8329138;28;20366;-46
2022/11/28 15:34:31;;;;;;;;;;;17.20;45.70;;;;;;8329404;28;19917;-46
2022/11/28 15:38:32;;;;;;;;;;;17.10;45.70;;;;;;8329530;28;19913;-46
2022/11/28 15:42:34;;;;;;;;;;;17.10;45.70;;;;;;8328912;28;19936;-46
2022/11/28 15:46:34;;;;;;;;;;;17.10;45.70;;;;;;8329558;28;19940;-45
2022/11/28 15:50:34;;;;;;;;;;;17.10;45.70;;;;;;8329320;28;20007;-46
2022/11/28 15:54:37;;;;;;;;;;;17.10;45.80;;;;;;8333544;28;19920;-45
2022/11/28 15:58:38;;;;;;;;;;;17.10;45.80;;;;;;8335554;28;20000;-45
2022/11/28 16:02:39;;;;;;;;;;;17.10;45.80;;;;;;8335240;28;19925;-46
2022/11/28 16:06:41;;;;;;;;;;;17.10;45.70;;;;;;8334124;28;19917;-46
2022/11/28 16:10:42;;;;;;;;;;;17.10;45.80;;;;;;8333226;28;19925;-45
2022/11/28 16:14:43;;;;;;;;;;;17.20;45.80;;;;;;8334680;28;19924;-45
2022/11/28 16:18:52;;;;;;;;;;;17.20;45.90;;;;;;8334184;28;19917;-46
2022/11/28 16:22:58;;;;;;;;;;;17.30;45.80;;;;;;8334736;28;19932;-45
2022/11/28 16:27:00;;;;;;;;;;;17.30;45.70;;;;;;8334188;28;19917;-46
2022/11/28 16:31:00;;;;;;;;;;;17.30;45.60;;;;;;8333721;28;19925;-46
2022/11/28 16:35:02;;;;;;;;;;;17.40;45.60;;;;;;8333881;28;19928;-45
2022/11/28 16:39:12;;;;;;;;;;;17.40;45.50;;;;;;8334186;28;20374;-44
2022/11/28 16:43:18;;;;;;;;;;;17.40;45.60;;;;;;8333858;28;20350;-45
2022/11/28 16:47:24;;;;;;;;;;;17.40;45.60;;;;;;8333671;28;19921;-45
2022/11/28 16:51:24;;;;;;;;;;;17.40;45.60;;;;;;8333412;28;20383;-45
2022/11/28 16:55:28;;;;;;;;;;;17.40;45.60;;;;;;8333028;28;19921;-46
2022/11/28 16:59:28;;;;;;;;;;;17.40;45.60;;;;;;8333324;28;19917;-45
2022/11/28 17:03:39;;;;;;;;;;;17.40;45.60;;;;;;8333194;28;20005;-45
2022/11/28 17:07:40;;;;;;;;;;;17.40;45.70;;;;;;8332988;28;19921;-45
2022/11/28 17:11:42;;;;;;;;;;;17.40;45.70;;;;;;8331894;28;20358;-45
2022/11/28 17:15:42;;;;;;;;;;;17.40;45.80;;;;;;8332389;28;19965;-46
2022/11/28 17:19:43;;;;;;;;;;;17.40;45.70;;;;;;8332623;28;19924;-48
2022/11/28 17:23:44;;;;;;;;;;;17.40;45.80;;;;;;8332960;28;19922;-46
2022/11/28 17:27:45;;;;;;;;;;;17.40;45.80;;;;;;8331081;28;19917;-45
2022/11/28 17:31:46;;;;;;;;;;;17.40;45.80;;;;;;8332221;28;20349;-47
2022/11/28 17:35:47;;;;;;;;;;;17.30;45.80;;;;;;8332279;28;20370;-48
2022/11/28 17:44:18;;;;;;;;;;;17.30;45.90;;;;;;8332116;28;19928;-46
2022/11/28 17:48:19;;;;;;;;;;;17.30;45.90;;;;;;8332038;28;19913;-45
2022/11/28 17:52:19;;;;;;;;;;;17.30;45.90;;;;;;8331153;28;19940;-46
2022/11/28 17:56:20;;;;;;;;;;;17.30;45.90;;;;;;8331781;28;19979;-45
2022/11/28 18:00:21;;;;;;;;;;;17.20;45.90;;;;;;8331387;28;19917;-47
2022/11/28 18:04:21;;;;;;;;;;;17.30;46.00;;;;;;8330767;28;19921;-45
2022/11/28 18:08:22;;;;;;;;;;;17.30;46.00;;;;;;8331625;28;19921;-47
2022/11/28 18:12:22;;;;;;;;;;;17.30;46.00;;;;;;8331011;28;19920;-47
2022/11/28 18:16:24;;;;;;;;;;;17.20;45.90;;;;;;8329974;28;19983;-47
2022/11/28 18:20:27;;;;;;;;;;;17.20;45.90;;;;;;8331015;28;19928;-48
2022/11/28 18:24:28;;;;;;;;;;;17.20;46.00;;;;;;8337635;28;19929;-45
2022/11/28 18:28:28;;;;;;;;;;;17.20;46.00;;;;;;8330745;28;20055;-45
2022/11/28 18:32:29;;;;;;;;;;;17.20;45.90;;;;;;8330610;28;19940;-46
2022/11/28 18:36:30;;;;;;;;;;;17.20;46.00;;;;;;8330031;28;20389;-45
2022/11/28 18:40:31;;;;;;;;;;;17.20;46.00;;;;;;8330631;28;19924;-47
2022/11/28 18:44:32;;;;;;;;;;;17.20;46.00;;;;;;8330483;28;20011;-44
2022/11/28 18:48:35;;;;;;;;;;;17.20;46.00;;;;;;8330436;28;19987;-47
2022/11/28 18:52:35;;;;;;;;;;;17.20;46.10;;;;;;8330241;28;19944;-47
2022/11/28 18:56:35;;;;;;;;;;;17.20;46.10;;;;;;8330364;28;20385;-46
2022/11/28 19:00:37;;;;;;;;;;;17.20;46.00;;;;;;8329544;28;19917;-47
2022/11/28 19:04:38;;;;;;;;;;;17.20;46.00;;;;;;8330404;28;19921;-47
2022/11/28 19:08:39;;;;;;;;;;;17.20;46.10;;;;;;8330875;28;19920;-44
2022/11/28 19:12:40;;;;;;;;;;;17.20;46.00;;;;;;8329552;28;19924;-46
2022/11/28 19:16:40;;;;;;;;;;;17.20;46.00;;;;;;8330067;28;20382;-46
2022/11/28 19:20:42;;;;;;;;;;;17.20;46.10;;;;;;8329809;28;20012;-46
2022/11/28 19:24:42;;;;;;;;;;;17.20;46.10;;;;;;8329254;28;19921;-48
2022/11/28 19:28:43;;;;;;;;;;;17.20;46.10;;;;;;8331809;28;20020;-47
2022/11/28 19:32:43;;;;;;;;;;;17.20;46.00;;;;;;8336099;28;20274;-47
2022/11/28 19:36:45;;;;;;;;;;;17.20;46.10;;;;;;8335432;28;19920;-46
2022/11/28 19:40:45;;;;;;;;;;;17.30;46.70;;;;;;8335830;28;19917;-46
2022/11/28 19:44:46;;;;;;;;;;;17.30;46.10;;;;;;8336050;28;19921;-47
2022/11/28 19:48:46;;;;;;;;;;;17.40;46.10;;;;;;8335675;28;20362;-49
2022/11/28 19:52:47;;;;;;;;;;;17.40;46.10;;;;;;8335506;28;19917;-45
2022/11/28 19:56:49;;;;;;;;;;;17.40;46.00;;;;;;8335368;28;19917;-46
2022/11/28 20:00:49;;;;;;;;;;;17.50;45.90;;;;;;8334851;28;19925;-46
2022/11/28 20:04:50;;;;;;;;;;;17.40;45.70;;;;;;8335232;28;20283;-46
2022/11/28 20:08:51;;;;;;;;;;;17.50;45.80;;;;;;8334091;28;19921;-47
2022/11/28 20:12:53;;;;;;;;;;;17.50;45.80;;;;;;8334359;28;19971;-46
2022/11/28 20:16:53;;;;;;;;;;;17.50;45.80;;;;;;8334757;28;20500;-46
2022/11/28 20:20:53;;;;;;;;;;;17.40;45.70;;;;;;8334650;28;19917;-45
2022/11/28 20:24:54;;;;;;;;;;;17.40;45.80;;;;;;8334320;28;19922;-45
2022/11/28 20:28:55;;;;;;;;;;;17.40;45.80;;;;;;8334544;28;20338;-46
2022/11/28 20:32:55;;;;;;;;;;;17.40;45.80;;;;;;8334571;28;20383;-45
2022/11/28 20:36:58;;;;;;;;;;;17.40;45.90;;;;;;8334226;28;19917;-47
2022/11/28 20:40:59;;;;;;;;;;;17.40;45.90;;;;;;8333923;28;19917;-45
2022/11/28 20:45:00;;;;;;;;;;;17.40;45.90;;;;;;8334241;28;20350;-45
2022/11/28 20:49:02;;;;;;;;;;;17.40;46.00;;;;;;8333739;28;19917;-45
2022/11/28 20:53:02;;;;;;;;;;;17.40;46.10;;;;;;8334339;28;19992;-45
2022/11/28 20:57:03;;;;;;;;;;;17.40;46.00;;;;;;8333805;28;19921;-45
2022/11/28 21:01:04;;;;;;;;;;;17.40;46.00;;;;;;8333264;28;19917;-46
2022/11/28 21:05:04;;;;;;;;;;;17.30;46.00;;;;;;8333629;28;19921;-45
2022/11/28 21:09:06;;;;;;;;;;;17.30;46.10;;;;;;8333403;28;19956;-45
2022/11/28 21:13:06;;;;;;;;;;;17.30;46.00;;;;;;8332777;28;19944;-46
2022/11/28 21:17:07;;;;;;;;;;;17.30;46.00;;;;;;8333010;28;19924;-46
2022/11/28 21:21:18;;;;;;;;;;;17.30;46.00;;;;;;8332854;28;19924;-45
2022/11/28 21:25:19;;;;;;;;;;;17.30;46.00;;;;;;8332594;28;20380;-45
2022/11/28 21:29:19;;;;;;;;;;;17.30;46.00;;;;;;8332847;28;19967;-45
2022/11/28 21:33:20;;;;;;;;;;;17.30;46.00;;;;;;8332986;28;20007;-45
2022/11/28 21:37:20;;;;;;;;;;;17.30;46.00;;;;;;8332024;28;19924;-45
2022/11/28 21:41:21;;;;;;;;;;;17.30;45.90;;;;;;8332359;28;19921;-46
2022/11/28 21:45:22;;;;;;;;;;;17.30;46.00;;;;;;8332223;28;19921;-45
2022/11/28 21:49:23;;;;;;;;;;;17.30;46.00;;;;;;8330808;28;19921;-45
2022/11/28 21:53:24;;;;;;;;;;;17.30;46.00;;;;;;8332022;28;19933;-45
2022/11/28 21:57:24;;;;;;;;;;;17.20;45.90;;;;;;8331790;28;20592;-45
2022/11/28 22:01:25;;;;;;;;;;;17.20;46.00;;;;;;8331212;28;19921;-44
2022/11/28 22:05:25;;;;;;;;;;;17.30;46.00;;;;;;8331647;28;20013;-46
2022/11/28 22:09:26;;;;;;;;;;;17.30;46.00;;;;;;8331197;28;20309;-45
2022/11/28 22:13:27;;;;;;;;;;;17.30;46.00;;;;;;8330863;28;19924;-45
2022/11/28 22:17:27;;;;;;;;;;;17.30;46.00;;;;;;8331344;28;19917;-45
2022/11/28 22:21:28;;;;;;;;;;;17.30;46.00;;;;;;8331067;28;19928;-46
2022/11/28 22:25:28;;;;;;;;;;;17.30;45.90;;;;;;8330769;28;19929;-45
2022/11/28 22:29:29;;;;;;;;;;;17.30;45.90;;;;;;8330811;28;19921;-45
2022/11/28 22:33:29;;;;;;;;;;;17.30;45.90;;;;;;8330549;28;20008;-44
2022/11/28 22:37:29;;;;;;;;;;;17.30;45.90;;;;;;8330670;28;19917;-46
2022/11/28 22:41:30;;;;;;;;;;;17.30;45.80;;;;;;8330465;28;19924;-46
2022/11/28 22:45:30;;;;;;;;;;;17.30;45.80;;;;;;8330160;28;20403;-47
2022/11/28 22:49:31;;;;;;;;;;;17.30;45.80;;;;;;8330397;28;20275;-47
2022/11/28 22:53:32;;;;;;;;;;;17.30;45.80;;;;;;8330302;28;20389;-45
2022/11/28 22:57:32;;;;;;;;;;;17.30;45.90;;;;;;8329849;28;19997;-46
2022/11/28 23:01:33;;;;;;;;;;;17.30;45.90;;;;;;8340896;28;19917;-45
2022/11/28 23:05:36;;;;;;;;;;;17.30;45.90;;;;;;8363325;28;20404;-45
2022/11/28 23:09:37;;;;;;;;;;;17.30;45.90;;;;;;8337732;28;19925;-45
2022/11/28 23:13:38;;;;;;;;;;;17.30;45.90;;;;;;8330256;28;20069;-45
2022/11/28 23:17:39;;;;;;;;;;;17.30;45.90;;;;;;8330012;28;19925;-45
2022/11/28 23:21:41;;;;;;;;;;;17.30;45.90;;;;;;8329537;28;19964;-46
2022/11/28 23:25:42;;;;;;;;;;;17.30;45.90;;;;;;8330300;28;20299;-46
2022/11/28 23:29:42;;;;;;;;;;;17.30;45.90;;;;;;8329730;28;19928;-46
2022/11/28 23:33:43;;;;;;;;;;;17.30;45.90;;;;;;8329366;28;19974;-46
2022/11/28 23:37:43;;;;;;;;;;;17.30;45.90;;;;;;8330477;28;19921;-45